sensor_id;sensor_type;location;lat;lon;timestamp;temperature;humidity
10133;DHT22;5106;50.926;7.080;2024-03-06T00:02:05;6.70;96.50
10133;DHT22;5106;50.926;7.080;2024-03-06T00:04:30;6.70;96.50
10133;DHT22;5106;50.926;7.080;2024-03-06T00:06:56;6.70;96.50
10133;DHT22;5106;50.926;7.080;2024-03-06T00:09:23;6.70;96.50
10133;DHT22;5106;50.926;7.080;2024-03-06T00:11:49;6.70;96.50
10133;DHT22;5106;50.926;7.080;2024-03-06T00:14:16;6.70;96.50
10133;DHT22;5106;50.926;7.080;2024-03-06T00:16:43;6.70;96.50
10133;DHT22;5106;50.926;7.080;2024-03-06T00:19:08;6.70;96.50
10133;DHT22;5106;50.926;7.080;2024-03-06T00:21:35;6.70;96.50
10133;DHT22;5106;50.926;7.080;2024-03-06T00:24:02;6.70;96.50
10133;DHT22;5106;50.926;7.080;2024-03-06T00:26:29;6.70;96.50
10133;DHT22;5106;50.926;7.080;2024-03-06T00:28:55;6.70;96.50
10133;DHT22;5106;50.926;7.080;2024-03-06T00:31:20;6.70;96.50
10133;DHT22;5106;50.926;7.080;2024-03-06T00:33:46;6.70;96.50
10133;DHT22;5106;50.926;7.080;2024-03-06T00:36:11;6.70;96.50
10133;DHT22;5106;50.926;7.080;2024-03-06T00:38:37;6.70;96.50
10133;DHT22;5106;50.926;7.080;2024-03-06T00:41:02;6.60;96.50
10133;DHT22;5106;50.926;7.080;2024-03-06T00:43:29;6.60;96.50
10133;DHT22;5106;50.926;7.080;2024-03-06T00:45:54;6.60;96.50
10133;DHT22;5106;50.926;7.080;2024-03-06T00:48:20;6.60;96.50
10133;DHT22;5106;50.926;7.080;2024-03-06T00:50:45;6.50;96.50
10133;DHT22;5106;50.926;7.080;2024-03-06T00:53:11;6.50;96.50
10133;DHT22;5106;50.926;7.080;2024-03-06T00:55:37;6.50;96.50
10133;DHT22;5106;50.926;7.080;2024-03-06T00:58:02;6.60;96.50
10133;DHT22;5106;50.926;7.080;2024-03-06T01:00:29;6.60;96.50
10133;DHT22;5106;50.926;7.080;2024-03-06T01:02:55;6.60;96.50
10133;DHT22;5106;50.926;7.080;2024-03-06T01:05:21;6.60;96.50
10133;DHT22;5106;50.926;7.080;2024-03-06T01:07:46;6.60;96.50
10133;DHT22;5106;50.926;7.080;2024-03-06T01:10:12;6.60;96.50
10133;DHT22;5106;50.926;7.080;2024-03-06T01:12:38;6.60;96.50
10133;DHT22;5106;50.926;7.080;2024-03-06T01:15:04;6.60;96.50
10133;DHT22;5106;50.926;7.080;2024-03-06T01:17:30;6.60;96.50
10133;DHT22;5106;50.926;7.080;2024-03-06T01:19:55;6.50;96.50
10133;DHT22;5106;50.926;7.080;2024-03-06T01:22:21;6.50;96.50
10133;DHT22;5106;50.926;7.080;2024-03-06T01:24:46;6.50;96.50
10133;DHT22;5106;50.926;7.080;2024-03-06T01:27:16;6.50;96.50
10133;DHT22;5106;50.926;7.080;2024-03-06T01:29:42;6.50;96.50
10133;DHT22;5106;50.926;7.080;2024-03-06T01:32:07;6.40;96.50
10133;DHT22;5106;50.926;7.080;2024-03-06T01:34:33;6.40;96.50
10133;DHT22;5106;50.926;7.080;2024-03-06T01:36:58;6.30;96.50
10133;DHT22;5106;50.926;7.080;2024-03-06T01:39:24;6.30;96.50
10133;DHT22;5106;50.926;7.080;2024-03-06T01:41:51;6.20;96.50
10133;DHT22;5106;50.926;7.080;2024-03-06T01:44:18;6.20;96.50
10133;DHT22;5106;50.926;7.080;2024-03-06T01:46:46;6.20;96.50
10133;DHT22;5106;50.926;7.080;2024-03-06T01:49:13;6.10;96.50
10133;DHT22;5106;50.926;7.080;2024-03-06T01:51:40;6.10;96.50
10133;DHT22;5106;50.926;7.080;2024-03-06T01:54:06;6.00;96.50
10133;DHT22;5106;50.926;7.080;2024-03-06T01:56:37;6.00;96.50
10133;DHT22;5106;50.926;7.080;2024-03-06T01:59:04;6.00;96.50
10133;DHT22;5106;50.926;7.080;2024-03-06T02:01:31;6.00;96.50
10133;DHT22;5106;50.926;7.080;2024-03-06T02:03:57;6.00;96.50
10133;DHT22;5106;50.926;7.080;2024-03-06T02:06:23;6.00;96.50
10133;DHT22;5106;50.926;7.080;2024-03-06T02:08:49;6.00;96.50
10133;DHT22;5106;50.926;7.080;2024-03-06T02:11:15;6.00;96.50
10133;DHT22;5106;50.926;7.080;2024-03-06T02:13:42;5.90;96.50
10133;DHT22;5106;50.926;7.080;2024-03-06T02:16:09;5.90;96.50
10133;DHT22;5106;50.926;7.080;2024-03-06T02:18:35;5.90;96.50
10133;DHT22;5106;50.926;7.080;2024-03-06T02:21:02;5.90;96.50
10133;DHT22;5106;50.926;7.080;2024-03-06T02:23:27;5.90;96.50
10133;DHT22;5106;50.926;7.080;2024-03-06T02:25:53;5.90;96.50
10133;DHT22;5106;50.926;7.080;2024-03-06T02:28:19;5.90;96.50
10133;DHT22;5106;50.926;7.080;2024-03-06T02:30:44;6.00;96.50
10133;DHT22;5106;50.926;7.080;2024-03-06T02:33:10;6.00;96.50
10133;DHT22;5106;50.926;7.080;2024-03-06T02:35:36;6.10;96.50
10133;DHT22;5106;50.926;7.080;2024-03-06T02:38:03;6.10;96.50
10133;DHT22;5106;50.926;7.080;2024-03-06T02:40:30;6.10;96.50
10133;DHT22;5106;50.926;7.080;2024-03-06T02:42:56;6.20;96.50
10133;DHT22;5106;50.926;7.080;2024-03-06T02:45:22;6.20;96.50
10133;DHT22;5106;50.926;7.080;2024-03-06T02:47:47;6.20;96.50
10133;DHT22;5106;50.926;7.080;2024-03-06T02:50:13;6.20;96.50
10133;DHT22;5106;50.926;7.080;2024-03-06T02:52:39;6.20;96.50
10133;DHT22;5106;50.926;7.080;2024-03-06T02:55:05;6.20;96.50
10133;DHT22;5106;50.926;7.080;2024-03-06T02:57:31;6.20;96.50
10133;DHT22;5106;50.926;7.080;2024-03-06T02:59:57;6.20;96.50
10133;DHT22;5106;50.926;7.080;2024-03-06T03:02:23;6.20;96.50
10133;DHT22;5106;50.926;7.080;2024-03-06T03:04:50;6.30;96.50
10133;DHT22;5106;50.926;7.080;2024-03-06T03:07:15;6.30;96.50
10133;DHT22;5106;50.926;7.080;2024-03-06T03:09:41;6.30;96.50
10133;DHT22;5106;50.926;7.080;2024-03-06T03:12:07;6.30;96.50
10133;DHT22;5106;50.926;7.080;2024-03-06T03:14:33;6.30;96.50
10133;DHT22;5106;50.926;7.080;2024-03-06T03:17:00;6.30;96.50
10133;DHT22;5106;50.926;7.080;2024-03-06T03:19:26;6.30;96.50
10133;DHT22;5106;50.926;7.080;2024-03-06T03:21:51;6.30;96.50
10133;DHT22;5106;50.926;7.080;2024-03-06T03:24:17;6.30;96.50
10133;DHT22;5106;50.926;7.080;2024-03-06T03:26:45;6.20;96.50
10133;DHT22;5106;50.926;7.080;2024-03-06T03:29:11;6.20;96.50
10133;DHT22;5106;50.926;7.080;2024-03-06T03:31:36;6.20;96.50
10133;DHT22;5106;50.926;7.080;2024-03-06T03:34:04;6.20;96.50
10133;DHT22;5106;50.926;7.080;2024-03-06T03:36:30;6.20;96.50
10133;DHT22;5106;50.926;7.080;2024-03-06T03:38:56;6.30;96.50
10133;DHT22;5106;50.926;7.080;2024-03-06T03:41:21;6.20;96.50
10133;DHT22;5106;50.926;7.080;2024-03-06T03:43:47;6.20;96.50
10133;DHT22;5106;50.926;7.080;2024-03-06T03:46:12;6.20;96.50
10133;DHT22;5106;50.926;7.080;2024-03-06T03:48:39;6.30;96.50
10133;DHT22;5106;50.926;7.080;2024-03-06T03:51:05;6.30;96.50
10133;DHT22;5106;50.926;7.080;2024-03-06T03:53:35;6.30;96.50
10133;DHT22;5106;50.926;7.080;2024-03-06T03:56:01;6.30;96.50
10133;DHT22;5106;50.926;7.080;2024-03-06T03:58:27;6.30;96.50
10133;DHT22;5106;50.926;7.080;2024-03-06T04:00:52;6.30;96.50
10133;DHT22;5106;50.926;7.080;2024-03-06T04:03:20;6.30;96.50
10133;DHT22;5106;50.926;7.080;2024-03-06T04:05:47;6.30;96.50
10133;DHT22;5106;50.926;7.080;2024-03-06T04:08:12;6.30;96.50
10133;DHT22;5106;50.926;7.080;2024-03-06T04:10:38;6.30;96.50
10133;DHT22;5106;50.926;7.080;2024-03-06T04:13:04;6.30;96.50
10133;DHT22;5106;50.926;7.080;2024-03-06T04:15:30;6.30;96.50
10133;DHT22;5106;50.926;7.080;2024-03-06T04:17:56;6.30;96.50
10133;DHT22;5106;50.926;7.080;2024-03-06T04:20:22;6.20;96.50
10133;DHT22;5106;50.926;7.080;2024-03-06T04:22:47;6.20;96.50
10133;DHT22;5106;50.926;7.080;2024-03-06T04:25:15;6.20;96.50
10133;DHT22;5106;50.926;7.080;2024-03-06T04:27:41;6.20;96.50
10133;DHT22;5106;50.926;7.080;2024-03-06T04:30:07;6.20;96.50
10133;DHT22;5106;50.926;7.080;2024-03-06T04:32:33;6.20;96.50
10133;DHT22;5106;50.926;7.080;2024-03-06T04:34:58;6.20;96.50
10133;DHT22;5106;50.926;7.080;2024-03-06T04:37:24;6.10;96.50
10133;DHT22;5106;50.926;7.080;2024-03-06T04:39:52;6.10;96.50
10133;DHT22;5106;50.926;7.080;2024-03-06T04:42:18;6.10;96.50
10133;DHT22;5106;50.926;7.080;2024-03-06T04:44:45;6.10;96.50
10133;DHT22;5106;50.926;7.080;2024-03-06T04:47:11;6.10;96.50
10133;DHT22;5106;50.926;7.080;2024-03-06T04:49:36;6.10;96.50
10133;DHT22;5106;50.926;7.080;2024-03-06T04:52:02;6.00;96.50
10133;DHT22;5106;50.926;7.080;2024-03-06T04:54:28;6.00;96.50
10133;DHT22;5106;50.926;7.080;2024-03-06T04:56:55;6.00;96.50
10133;DHT22;5106;50.926;7.080;2024-03-06T04:59:21;5.90;96.50
10133;DHT22;5106;50.926;7.080;2024-03-06T05:01:46;5.90;96.50
10133;DHT22;5106;50.926;7.080;2024-03-06T05:04:12;5.90;96.50
10133;DHT22;5106;50.926;7.080;2024-03-06T05:06:38;5.90;96.50
10133;DHT22;5106;50.926;7.080;2024-03-06T05:09:03;5.90;96.50
10133;DHT22;5106;50.926;7.080;2024-03-06T05:11:31;5.90;96.50
10133;DHT22;5106;50.926;7.080;2024-03-06T05:13:59;5.80;96.50
10133;DHT22;5106;50.926;7.080;2024-03-06T05:16:25;5.80;96.50
10133;DHT22;5106;50.926;7.080;2024-03-06T05:18:52;5.80;96.50
10133;DHT22;5106;50.926;7.080;2024-03-06T05:21:18;5.80;96.50
10133;DHT22;5106;50.926;7.080;2024-03-06T05:24:05;5.80;96.50
10133;DHT22;5106;50.926;7.080;2024-03-06T05:26:31;5.80;96.50
10133;DHT22;5106;50.926;7.080;2024-03-06T05:28:56;5.80;96.50
10133;DHT22;5106;50.926;7.080;2024-03-06T05:31:22;5.80;96.50
10133;DHT22;5106;50.926;7.080;2024-03-06T05:33:49;5.80;96.50
10133;DHT22;5106;50.926;7.080;2024-03-06T05:36:15;5.80;96.50
10133;DHT22;5106;50.926;7.080;2024-03-06T05:38:41;5.80;96.50
10133;DHT22;5106;50.926;7.080;2024-03-06T05:41:07;5.90;96.50
10133;DHT22;5106;50.926;7.080;2024-03-06T05:43:34;5.90;96.50
10133;DHT22;5106;50.926;7.080;2024-03-06T05:45:59;5.90;96.50
10133;DHT22;5106;50.926;7.080;2024-03-06T05:48:26;5.90;96.50
10133;DHT22;5106;50.926;7.080;2024-03-06T05:50:53;5.90;96.50
10133;DHT22;5106;50.926;7.080;2024-03-06T05:53:18;5.90;96.50
10133;DHT22;5106;50.926;7.080;2024-03-06T05:55:45;5.80;96.50
10133;DHT22;5106;50.926;7.080;2024-03-06T05:58:10;5.80;96.50
10133;DHT22;5106;50.926;7.080;2024-03-06T06:00:36;5.70;96.50
10133;DHT22;5106;50.926;7.080;2024-03-06T06:03:01;5.70;96.50
10133;DHT22;5106;50.926;7.080;2024-03-06T06:05:28;5.70;96.50
10133;DHT22;5106;50.926;7.080;2024-03-06T06:07:54;5.60;96.50
10133;DHT22;5106;50.926;7.080;2024-03-06T06:10:19;5.50;96.50
10133;DHT22;5106;50.926;7.080;2024-03-06T06:12:45;5.50;96.50
10133;DHT22;5106;50.926;7.080;2024-03-06T06:15:11;5.50;96.50
10133;DHT22;5106;50.926;7.080;2024-03-06T06:17:36;5.50;96.50
10133;DHT22;5106;50.926;7.080;2024-03-06T06:20:06;5.50;96.50
10133;DHT22;5106;50.926;7.080;2024-03-06T06:22:36;5.50;96.50
10133;DHT22;5106;50.926;7.080;2024-03-06T06:25:02;5.50;96.50
10133;DHT22;5106;50.926;7.080;2024-03-06T06:27:29;5.50;96.50
10133;DHT22;5106;50.926;7.080;2024-03-06T06:29:54;5.50;96.50
10133;DHT22;5106;50.926;7.080;2024-03-06T06:32:21;5.50;96.50
10133;DHT22;5106;50.926;7.080;2024-03-06T06:34:46;5.50;96.50
10133;DHT22;5106;50.926;7.080;2024-03-06T06:37:12;5.50;96.50
10133;DHT22;5106;50.926;7.080;2024-03-06T06:39:37;5.50;96.50
10133;DHT22;5106;50.926;7.080;2024-03-06T06:42:03;5.50;96.50
10133;DHT22;5106;50.926;7.080;2024-03-06T06:44:29;5.50;96.50
10133;DHT22;5106;50.926;7.080;2024-03-06T06:46:55;5.50;96.50
10133;DHT22;5106;50.926;7.080;2024-03-06T06:49:21;5.50;96.50
10133;DHT22;5106;50.926;7.080;2024-03-06T06:51:47;5.50;96.50
10133;DHT22;5106;50.926;7.080;2024-03-06T06:54:14;5.50;96.50
10133;DHT22;5106;50.926;7.080;2024-03-06T06:56:40;5.50;96.50
10133;DHT22;5106;50.926;7.080;2024-03-06T06:59:06;5.50;96.50
10133;DHT22;5106;50.926;7.080;2024-03-06T07:01:31;5.50;96.50
10133;DHT22;5106;50.926;7.080;2024-03-06T07:03:58;5.50;96.50
10133;DHT22;5106;50.926;7.080;2024-03-06T07:06:24;5.50;96.50
10133;DHT22;5106;50.926;7.080;2024-03-06T07:08:50;5.50;96.50
10133;DHT22;5106;50.926;7.080;2024-03-06T07:11:17;5.50;96.50
10133;DHT22;5106;50.926;7.080;2024-03-06T07:13:43;5.50;96.50
10133;DHT22;5106;50.926;7.080;2024-03-06T07:16:09;5.50;96.50
10133;DHT22;5106;50.926;7.080;2024-03-06T07:18:34;5.50;96.50
10133;DHT22;5106;50.926;7.080;2024-03-06T07:21:00;5.50;96.50
10133;DHT22;5106;50.926;7.080;2024-03-06T07:23:26;5.60;96.50
10133;DHT22;5106;50.926;7.080;2024-03-06T07:25:51;5.60;96.50
10133;DHT22;5106;50.926;7.080;2024-03-06T07:28:17;5.70;96.50
10133;DHT22;5106;50.926;7.080;2024-03-06T07:30:43;5.80;96.50
10133;DHT22;5106;50.926;7.080;2024-03-06T07:33:09;5.80;96.50
10133;DHT22;5106;50.926;7.080;2024-03-06T07:35:34;5.80;96.50
10133;DHT22;5106;50.926;7.080;2024-03-06T07:38:02;5.80;96.50
10133;DHT22;5106;50.926;7.080;2024-03-06T07:40:30;5.80;96.50
10133;DHT22;5106;50.926;7.080;2024-03-06T07:42:56;5.80;96.50
10133;DHT22;5106;50.926;7.080;2024-03-06T07:45:21;5.90;96.50
10133;DHT22;5106;50.926;7.080;2024-03-06T07:47:47;5.90;96.50
10133;DHT22;5106;50.926;7.080;2024-03-06T07:50:13;6.00;96.50
10133;DHT22;5106;50.926;7.080;2024-03-06T07:52:45;6.00;96.50
10133;DHT22;5106;50.926;7.080;2024-03-06T07:55:10;6.10;96.50
10133;DHT22;5106;50.926;7.080;2024-03-06T07:57:36;6.10;96.50
10133;DHT22;5106;50.926;7.080;2024-03-06T08:00:02;6.10;96.50
10133;DHT22;5106;50.926;7.080;2024-03-06T08:02:40;6.20;96.50
10133;DHT22;5106;50.926;7.080;2024-03-06T08:05:11;6.30;96.50
10133;DHT22;5106;50.926;7.080;2024-03-06T08:07:40;6.30;96.50
10133;DHT22;5106;50.926;7.080;2024-03-06T08:10:11;6.40;96.50
10133;DHT22;5106;50.926;7.080;2024-03-06T08:12:43;6.40;96.50
10133;DHT22;5106;50.926;7.080;2024-03-06T08:15:13;6.50;96.50
10133;DHT22;5106;50.926;7.080;2024-03-06T08:17:41;6.50;96.50
10133;DHT22;5106;50.926;7.080;2024-03-06T08:20:08;6.60;96.50
10133;DHT22;5106;50.926;7.080;2024-03-06T08:22:41;6.70;96.50
10133;DHT22;5106;50.926;7.080;2024-03-06T08:25:08;6.70;96.50
10133;DHT22;5106;50.926;7.080;2024-03-06T08:27:39;6.80;96.50
10133;DHT22;5106;50.926;7.080;2024-03-06T08:30:05;6.80;96.50
10133;DHT22;5106;50.926;7.080;2024-03-06T08:32:32;6.90;96.50
10133;DHT22;5106;50.926;7.080;2024-03-06T08:35:10;6.90;96.50
10133;DHT22;5106;50.926;7.080;2024-03-06T08:37:40;7.00;96.50
10133;DHT22;5106;50.926;7.080;2024-03-06T08:40:07;7.00;96.50
10133;DHT22;5106;50.926;7.080;2024-03-06T08:42:35;7.10;96.50
10133;DHT22;5106;50.926;7.080;2024-03-06T08:45:01;7.20;96.50
10133;DHT22;5106;50.926;7.080;2024-03-06T08:47:27;7.20;96.50
10133;DHT22;5106;50.926;7.080;2024-03-06T08:49:52;7.30;96.50
10133;DHT22;5106;50.926;7.080;2024-03-06T08:52:18;7.30;96.50
10133;DHT22;5106;50.926;7.080;2024-03-06T08:54:45;7.40;96.50
10133;DHT22;5106;50.926;7.080;2024-03-06T08:57:11;7.40;96.50
10133;DHT22;5106;50.926;7.080;2024-03-06T08:59:36;7.40;96.50
10133;DHT22;5106;50.926;7.080;2024-03-06T09:02:16;7.50;96.50
10133;DHT22;5106;50.926;7.080;2024-03-06T09:04:43;7.60;96.50
10133;DHT22;5106;50.926;7.080;2024-03-06T09:07:09;7.60;96.50
10133;DHT22;5106;50.926;7.080;2024-03-06T09:09:35;7.70;96.50
10133;DHT22;5106;50.926;7.080;2024-03-06T09:12:07;7.80;96.50
10133;DHT22;5106;50.926;7.080;2024-03-06T09:14:35;7.80;96.50
10133;DHT22;5106;50.926;7.080;2024-03-06T09:17:01;7.90;96.50
10133;DHT22;5106;50.926;7.080;2024-03-06T09:19:26;7.90;96.50
10133;DHT22;5106;50.926;7.080;2024-03-06T09:21:52;8.00;96.50
10133;DHT22;5106;50.926;7.080;2024-03-06T09:24:19;7.90;96.50
10133;DHT22;5106;50.926;7.080;2024-03-06T09:26:45;8.00;96.50
10133;DHT22;5106;50.926;7.080;2024-03-06T09:29:11;8.10;96.50
10133;DHT22;5106;50.926;7.080;2024-03-06T09:31:36;8.20;96.50
10133;DHT22;5106;50.926;7.080;2024-03-06T09:34:05;8.20;96.50
10133;DHT22;5106;50.926;7.080;2024-03-06T09:36:30;8.20;96.50
10133;DHT22;5106;50.926;7.080;2024-03-06T09:38:59;8.30;96.50
10133;DHT22;5106;50.926;7.080;2024-03-06T09:41:25;8.30;96.50
10133;DHT22;5106;50.926;7.080;2024-03-06T09:43:50;8.40;96.50
10133;DHT22;5106;50.926;7.080;2024-03-06T09:46:17;8.40;96.50
10133;DHT22;5106;50.926;7.080;2024-03-06T09:48:47;8.50;96.50
10133;DHT22;5106;50.926;7.080;2024-03-06T09:51:14;8.60;96.50
10133;DHT22;5106;50.926;7.080;2024-03-06T09:53:40;8.60;96.50
10133;DHT22;5106;50.926;7.080;2024-03-06T09:56:07;8.50;96.50
10133;DHT22;5106;50.926;7.080;2024-03-06T09:58:34;8.50;96.50
10133;DHT22;5106;50.926;7.080;2024-03-06T10:01:01;8.50;96.50
10133;DHT22;5106;50.926;7.080;2024-03-06T10:03:29;8.60;96.50
10133;DHT22;5106;50.926;7.080;2024-03-06T10:05:54;8.60;96.50
10133;DHT22;5106;50.926;7.080;2024-03-06T10:08:21;8.70;96.50
10133;DHT22;5106;50.926;7.080;2024-03-06T10:10:50;8.80;96.50
10133;DHT22;5106;50.926;7.080;2024-03-06T10:13:24;8.80;96.50
10133;DHT22;5106;50.926;7.080;2024-03-06T10:16:00;8.80;96.50
10133;DHT22;5106;50.926;7.080;2024-03-06T10:18:27;8.90;96.50
10133;DHT22;5106;50.926;7.080;2024-03-06T10:20:53;8.90;96.50
10133;DHT22;5106;50.926;7.080;2024-03-06T10:23:19;8.90;96.50
10133;DHT22;5106;50.926;7.080;2024-03-06T10:25:46;9.00;96.50
10133;DHT22;5106;50.926;7.080;2024-03-06T10:28:12;9.20;96.50
10133;DHT22;5106;50.926;7.080;2024-03-06T10:30:40;9.30;96.50
10133;DHT22;5106;50.926;7.080;2024-03-06T10:33:08;9.30;96.50
10133;DHT22;5106;50.926;7.080;2024-03-06T10:35:39;9.30;96.50
10133;DHT22;5106;50.926;7.080;2024-03-06T10:38:06;9.30;96.50
10133;DHT22;5106;50.926;7.080;2024-03-06T10:40:36;9.30;96.50
10133;DHT22;5106;50.926;7.080;2024-03-06T10:43:03;9.40;96.50
10133;DHT22;5106;50.926;7.080;2024-03-06T10:45:57;9.40;96.50
10133;DHT22;5106;50.926;7.080;2024-03-06T10:48:28;9.60;96.50
10133;DHT22;5106;50.926;7.080;2024-03-06T10:50:53;9.70;96.50
10133;DHT22;5106;50.926;7.080;2024-03-06T10:53:20;9.90;96.50
10133;DHT22;5106;50.926;7.080;2024-03-06T10:55:49;10.10;96.50
10133;DHT22;5106;50.926;7.080;2024-03-06T10:58:15;10.20;96.50
10133;DHT22;5106;50.926;7.080;2024-03-06T11:00:44;10.20;96.50
10133;DHT22;5106;50.926;7.080;2024-03-06T11:03:13;10.20;96.50
10133;DHT22;5106;50.926;7.080;2024-03-06T11:05:40;10.20;96.50
10133;DHT22;5106;50.926;7.080;2024-03-06T11:08:09;10.30;96.50
10133;DHT22;5106;50.926;7.080;2024-03-06T11:10:37;10.30;96.50
10133;DHT22;5106;50.926;7.080;2024-03-06T11:13:08;10.40;96.50
10133;DHT22;5106;50.926;7.080;2024-03-06T11:15:34;10.60;96.50
10133;DHT22;5106;50.926;7.080;2024-03-06T11:23:30;11.00;96.50
10133;DHT22;5106;50.926;7.080;2024-03-06T11:25:57;11.00;96.50
10133;DHT22;5106;50.926;7.080;2024-03-06T11:28:33;10.90;96.50
10133;DHT22;5106;50.926;7.080;2024-03-06T11:31:06;10.60;96.50
10133;DHT22;5106;50.926;7.080;2024-03-06T11:33:39;10.60;96.50
10133;DHT22;5106;50.926;7.080;2024-03-06T11:39:04;10.70;96.50
10133;DHT22;5106;50.926;7.080;2024-03-06T11:44:16;10.90;96.50
10133;DHT22;5106;50.926;7.080;2024-03-06T11:46:46;10.80;96.50
10133;DHT22;5106;50.926;7.080;2024-03-06T11:49:18;10.80;96.50
10133;DHT22;5106;50.926;7.080;2024-03-06T11:51:46;10.70;96.50
10133;DHT22;5106;50.926;7.080;2024-03-06T11:54:12;10.70;96.50
10133;DHT22;5106;50.926;7.080;2024-03-06T11:56:44;10.90;96.50
10133;DHT22;5106;50.926;7.080;2024-03-06T11:59:10;11.00;96.50
10133;DHT22;5106;50.926;7.080;2024-03-06T12:01:37;11.10;96.50
10133;DHT22;5106;50.926;7.080;2024-03-06T12:04:03;11.00;96.50
10133;DHT22;5106;50.926;7.080;2024-03-06T12:06:32;10.80;96.50
10133;DHT22;5106;50.926;7.080;2024-03-06T12:08:58;10.60;96.50
10133;DHT22;5106;50.926;7.080;2024-03-06T12:11:24;10.40;96.50
10133;DHT22;5106;50.926;7.080;2024-03-06T12:13:54;10.30;96.50
10133;DHT22;5106;50.926;7.080;2024-03-06T12:16:21;10.40;96.50
10133;DHT22;5106;50.926;7.080;2024-03-06T12:18:46;10.60;96.50
10133;DHT22;5106;50.926;7.080;2024-03-06T12:21:12;10.70;96.50
10133;DHT22;5106;50.926;7.080;2024-03-06T12:23:41;10.60;96.50
10133;DHT22;5106;50.926;7.080;2024-03-06T12:26:08;10.70;96.50
10133;DHT22;5106;50.926;7.080;2024-03-06T12:28:35;10.90;96.50
10133;DHT22;5106;50.926;7.080;2024-03-06T12:31:05;11.10;96.50
10133;DHT22;5106;50.926;7.080;2024-03-06T12:33:33;11.30;96.50
10133;DHT22;5106;50.926;7.080;2024-03-06T12:36:06;11.40;96.50
10133;DHT22;5106;50.926;7.080;2024-03-06T12:38:36;11.50;96.50
10133;DHT22;5106;50.926;7.080;2024-03-06T12:41:02;11.60;96.50
10133;DHT22;5106;50.926;7.080;2024-03-06T12:43:28;11.60;96.50
10133;DHT22;5106;50.926;7.080;2024-03-06T12:45:54;11.60;96.50
10133;DHT22;5106;50.926;7.080;2024-03-06T12:48:21;11.60;96.50
10133;DHT22;5106;50.926;7.080;2024-03-06T12:50:47;11.50;96.50
10133;DHT22;5106;50.926;7.080;2024-03-06T12:53:18;11.50;96.50
10133;DHT22;5106;50.926;7.080;2024-03-06T12:55:44;11.50;96.50
10133;DHT22;5106;50.926;7.080;2024-03-06T12:58:11;11.50;96.50
10133;DHT22;5106;50.926;7.080;2024-03-06T13:00:37;11.50;96.50
10133;DHT22;5106;50.926;7.080;2024-03-06T13:03:03;11.50;96.50
10133;DHT22;5106;50.926;7.080;2024-03-06T13:05:29;11.60;96.50
10133;DHT22;5106;50.926;7.080;2024-03-06T13:07:54;11.70;96.50
10133;DHT22;5106;50.926;7.080;2024-03-06T13:10:20;11.70;96.50
10133;DHT22;5106;50.926;7.080;2024-03-06T13:12:47;11.70;96.50
10133;DHT22;5106;50.926;7.080;2024-03-06T13:15:13;11.70;96.50
10133;DHT22;5106;50.926;7.080;2024-03-06T13:17:38;11.90;96.50
10133;DHT22;5106;50.926;7.080;2024-03-06T13:20:06;12.00;96.50
10133;DHT22;5106;50.926;7.080;2024-03-06T13:22:34;12.00;96.50
10133;DHT22;5106;50.926;7.080;2024-03-06T13:25:00;12.10;96.50
10133;DHT22;5106;50.926;7.080;2024-03-06T13:27:25;12.10;96.50
10133;DHT22;5106;50.926;7.080;2024-03-06T13:29:51;12.10;96.50
10133;DHT22;5106;50.926;7.080;2024-03-06T13:32:17;12.20;96.50
10133;DHT22;5106;50.926;7.080;2024-03-06T13:34:42;12.20;96.50
10133;DHT22;5106;50.926;7.080;2024-03-06T13:37:12;12.20;96.50
10133;DHT22;5106;50.926;7.080;2024-03-06T13:39:38;12.30;96.50
10133;DHT22;5106;50.926;7.080;2024-03-06T13:42:04;12.30;96.50
10133;DHT22;5106;50.926;7.080;2024-03-06T13:44:31;12.40;96.50
10133;DHT22;5106;50.926;7.080;2024-03-06T13:46:57;12.40;96.50
10133;DHT22;5106;50.926;7.080;2024-03-06T13:49:41;12.50;96.50
10133;DHT22;5106;50.926;7.080;2024-03-06T13:52:08;12.50;96.50
10133;DHT22;5106;50.926;7.080;2024-03-06T13:54:42;12.40;96.50
10133;DHT22;5106;50.926;7.080;2024-03-06T13:57:10;12.50;96.50
10133;DHT22;5106;50.926;7.080;2024-03-06T13:59:36;12.60;96.50
10133;DHT22;5106;50.926;7.080;2024-03-06T14:02:03;12.60;96.50
10133;DHT22;5106;50.926;7.080;2024-03-06T14:04:29;12.70;96.50
10133;DHT22;5106;50.926;7.080;2024-03-06T14:06:56;12.90;96.50
10133;DHT22;5106;50.926;7.080;2024-03-06T14:09:24;12.90;96.50
10133;DHT22;5106;50.926;7.080;2024-03-06T14:11:51;13.00;96.50
10133;DHT22;5106;50.926;7.080;2024-03-06T14:14:17;12.90;96.50
10133;DHT22;5106;50.926;7.080;2024-03-06T14:16:43;12.90;96.50
10133;DHT22;5106;50.926;7.080;2024-03-06T14:19:09;12.90;96.50
10133;DHT22;5106;50.926;7.080;2024-03-06T14:21:36;12.80;96.50
10133;DHT22;5106;50.926;7.080;2024-03-06T14:24:02;12.80;96.50
10133;DHT22;5106;50.926;7.080;2024-03-06T14:26:32;12.80;96.50
10133;DHT22;5106;50.926;7.080;2024-03-06T14:28:58;12.90;96.50
10133;DHT22;5106;50.926;7.080;2024-03-06T14:31:24;13.10;96.50
10133;DHT22;5106;50.926;7.080;2024-03-06T14:33:49;13.30;96.50
10133;DHT22;5106;50.926;7.080;2024-03-06T14:36:16;13.40;96.50
10133;DHT22;5106;50.926;7.080;2024-03-06T14:38:42;13.40;96.50
10133;DHT22;5106;50.926;7.080;2024-03-06T14:41:09;13.50;96.50
10133;DHT22;5106;50.926;7.080;2024-03-06T14:43:35;13.80;96.50
10133;DHT22;5106;50.926;7.080;2024-03-06T14:46:07;14.10;96.50
10133;DHT22;5106;50.926;7.080;2024-03-06T14:48:34;14.40;96.50
10133;DHT22;5106;50.926;7.080;2024-03-06T14:51:00;14.80;95.00
10133;DHT22;5106;50.926;7.080;2024-03-06T14:53:26;15.30;96.30
10133;DHT22;5106;50.926;7.080;2024-03-06T14:55:52;15.50;94.10
10133;DHT22;5106;50.926;7.080;2024-03-06T14:58:18;15.40;94.20
10133;DHT22;5106;50.926;7.080;2024-03-06T15:00:44;15.30;93.10
10133;DHT22;5106;50.926;7.080;2024-03-06T15:03:09;15.40;91.90
10133;DHT22;5106;50.926;7.080;2024-03-06T15:05:36;15.50;92.20
10133;DHT22;5106;50.926;7.080;2024-03-06T15:08:02;15.50;92.20
10133;DHT22;5106;50.926;7.080;2024-03-06T15:10:29;15.40;91.30
10133;DHT22;5106;50.926;7.080;2024-03-06T15:12:57;15.30;93.60
10133;DHT22;5106;50.926;7.080;2024-03-06T15:15:22;15.30;93.80
10133;DHT22;5106;50.926;7.080;2024-03-06T15:17:48;15.10;93.10
10133;DHT22;5106;50.926;7.080;2024-03-06T15:20:13;14.80;93.90
10133;DHT22;5106;50.926;7.080;2024-03-06T15:22:39;14.70;96.20
10133;DHT22;5106;50.926;7.080;2024-03-06T15:25:09;14.70;96.50
10133;DHT22;5106;50.926;7.080;2024-03-06T15:27:36;14.80;96.50
10133;DHT22;5106;50.926;7.080;2024-03-06T15:30:06;14.80;96.50
10133;DHT22;5106;50.926;7.080;2024-03-06T15:32:37;14.90;96.50
10133;DHT22;5106;50.926;7.080;2024-03-06T15:35:04;14.90;96.50
10133;DHT22;5106;50.926;7.080;2024-03-06T15:37:30;15.00;96.50
10133;DHT22;5106;50.926;7.080;2024-03-06T15:39:56;15.00;94.00
10133;DHT22;5106;50.926;7.080;2024-03-06T15:42:23;14.70;96.50
10133;DHT22;5106;50.926;7.080;2024-03-06T15:44:49;14.60;96.50
10133;DHT22;5106;50.926;7.080;2024-03-06T15:47:16;14.30;96.50
10133;DHT22;5106;50.926;7.080;2024-03-06T15:49:42;14.10;96.50
10133;DHT22;5106;50.926;7.080;2024-03-06T15:52:09;13.90;96.50
10133;DHT22;5106;50.926;7.080;2024-03-06T15:54:36;13.70;96.50
10133;DHT22;5106;50.926;7.080;2024-03-06T15:57:02;13.30;96.50
10133;DHT22;5106;50.926;7.080;2024-03-06T15:59:27;13.10;96.50
10133;DHT22;5106;50.926;7.080;2024-03-06T16:01:54;13.00;96.50
10133;DHT22;5106;50.926;7.080;2024-03-06T16:04:21;12.90;96.50
10133;DHT22;5106;50.926;7.080;2024-03-06T16:06:46;12.90;96.50